Time;durP1;ratioP1;P1;durP2;ratioP2;P2;SDS_P1;SDS_P2;PMS_P1;PMS_P2;Temp;Humidity;BMP_temperature;BMP_pressure;BME280_temperature;BME280_humidity;BME280_pressure;Samples;Min_cycle;Max_cycle;Signal;HPM_P1;HPM_P2
2022/07/10 00:00:32;;;;;;;;;;;;;;;18.14;48.52;101667.13;4945061;28;7294;-81
2022/07/10 00:02:58;;;;;;;;;;;;;;;18.11;48.39;101664.41;4948582;28;7089;-81
2022/07/10 00:05:25;;;;;;;;;;;;;;;18.11;48.27;101660.97;4965552;28;7022;-81
2022/07/10 00:07:52;;;;;;;;;;;;;;;18.07;48.46;101653.88;4976078;28;6974;-81
2022/07/10 00:10:20;;;;;;;;;;;;;;;18.06;48.63;101662.47;4978036;28;7266;-81
2022/07/10 00:12:48;;;;;;;;;;;;;;;18.02;48.62;101651.97;4944415;28;7191;-81
2022/07/10 00:15:15;;;;;;;;;;;;;;;18.01;48.55;101659.69;4957534;28;6985;-81
2022/07/10 00:17:42;;;;;;;;;;;;;;;17.99;48.84;101663.94;4965632;28;7186;-81
2022/07/10 00:20:10;;;;;;;;;;;;;;;17.96;48.55;101667.28;4957070;28;8759;-81
2022/07/10 00:22:40;;;;;;;;;;;;;;;17.93;48.66;101666.28;4953742;28;8461;-81
2022/07/10 00:25:09;;;;;;;;;;;;;;;17.88;48.82;101664.41;4950597;28;7293;-81
2022/07/10 00:27:35;;;;;;;;;;;;;;;17.84;48.85;101666.84;4960482;28;7027;-81
2022/07/10 00:30:01;;;;;;;;;;;;;;;17.81;48.99;101658.91;4962965;28;7023;-81
2022/07/10 00:32:27;;;;;;;;;;;;;;;17.78;49.19;101664.88;4925281;28;6963;-81
2022/07/10 00:34:53;;;;;;;;;;;;;;;17.76;49.18;101663.91;4949419;28;7090;-81
2022/07/10 00:37:21;;;;;;;;;;;;;;;17.73;49.47;101663.81;4950505;28;7458;-81
2022/07/10 00:39:47;;;;;;;;;;;;;;;17.70;49.35;101663.72;4950150;28;7273;-81
2022/07/10 00:42:15;;;;;;;;;;;;;;;17.67;49.75;101658.38;4950366;28;8451;-81
2022/07/10 00:44:43;;;;;;;;;;;;;;;17.64;49.24;101656.56;4978358;28;7111;-81
2022/07/10 00:47:11;;;;;;;;;;;;;;;17.60;49.78;101663.34;4947965;28;6970;-81
2022/07/10 00:49:38;;;;;;;;;;;;;;;17.58;49.45;101652.03;4930878;28;8761;-81
2022/07/10 00:52:13;;;;;;;;;;;;;;;17.54;49.94;101650.13;4958431;28;6899;-81
2022/07/10 00:54:44;;;;;;;;;;;;;;;17.50;50.26;101650.84;4944010;28;7203;-81
2022/07/10 00:57:16;;;;;;;;;;;;;;;17.48;50.54;101642.13;4973026;28;7267;-81
2022/07/10 00:59:44;;;;;;;;;;;;;;;17.45;50.10;101639.41;4941836;28;7005;-81
2022/07/10 01:02:13;;;;;;;;;;;;;;;17.43;50.43;101633.28;4955098;28;8464;-81
2022/07/10 01:04:38;;;;;;;;;;;;;;;17.41;50.12;101624.56;4948819;28;6910;-81
2022/07/10 01:07:04;;;;;;;;;;;;;;;17.41;50.59;101617.66;4936424;28;6953;-81
2022/07/10 01:09:32;;;;;;;;;;;;;;;17.42;51.03;101615.97;4953910;28;7037;-81
2022/07/10 01:12:01;;;;;;;;;;;;;;;17.48;50.96;101622.28;4961659;28;7705;-81
2022/07/10 01:14:31;;;;;;;;;;;;;;;17.56;51.23;101619.09;4963022;28;8821;-81
2022/07/10 01:16:58;;;;;;;;;;;;;;;17.63;51.35;101619.38;4975058;28;6996;-81
2022/07/10 01:19:24;;;;;;;;;;;;;;;17.75;51.49;101618.97;4960304;28;7459;-81
2022/07/10 01:21:50;;;;;;;;;;;;;;;17.83;50.92;101614.06;4936885;28;6996;-81
2022/07/10 01:24:15;;;;;;;;;;;;;;;17.91;51.50;101612.66;4974608;28;6938;-81
2022/07/10 01:26:42;;;;;;;;;;;;;;;18.00;51.15;101619.00;4947822;28;8347;-81
2022/07/10 01:29:11;;;;;;;;;;;;;;;18.05;50.65;101614.88;4962965;28;7357;-81
2022/07/10 01:31:37;;;;;;;;;;;;;;;18.09;50.50;101611.59;4957408;28;6902;-81
2022/07/10 01:34:08;;;;;;;;;;;;;;;18.10;50.74;101604.69;4973680;28;6956;-81
2022/07/10 01:36:34;;;;;;;;;;;;;;;18.07;50.09;101607.19;4963953;28;7421;-81
2022/07/10 01:39:00;;;;;;;;;;;;;;;18.03;50.68;101600.97;4954545;28;7122;-81
2022/07/10 01:41:26;;;;;;;;;;;;;;;18.01;50.50;101605.22;4976198;28;7234;-81
2022/07/10 01:43:52;;;;;;;;;;;;;;;17.97;50.40;101599.03;4952721;28;7233;-81
2022/07/10 01:46:18;;;;;;;;;;;;;;;17.95;50.59;101587.72;4953218;28;6962;-81
2022/07/10 01:48:44;;;;;;;;;;;;;;;17.95;50.67;101594.59;4934746;28;7140;-81
2022/07/10 01:51:11;;;;;;;;;;;;;;;17.95;50.98;101594.59;4978240;28;7933;-81
2022/07/10 01:53:38;;;;;;;;;;;;;;;17.95;50.95;101592.00;4979273;28;7172;-81
2022/07/10 01:56:10;;;;;;;;;;;;;;;17.99;50.52;101593.91;4969947;28;7050;-81
2022/07/10 01:58:37;;;;;;;;;;;;;;;18.00;50.55;101596.53;4952507;28;7220;-81
2022/07/10 02:01:05;;;;;;;;;;;;;;;18.02;50.90;101594.91;4963328;28;8041;-81
2022/07/10 02:06:16;;;;;;;;;;;;;;;18.04;50.49;101589.78;4973294;28;7284;-81
2022/07/10 02:08:41;;;;;;;;;;;;;;;18.04;50.54;101587.19;4970267;28;6976;-81
2022/07/10 02:11:07;;;;;;;;;;;;;;;18.05;50.81;101583.75;4982231;28;7026;-81
2022/07/10 02:13:33;;;;;;;;;;;;;;;18.02;50.34;101586.22;4968127;28;6989;-81
2022/07/10 02:15:58;;;;;;;;;;;;;;;18.01;50.18;101592.25;4980942;28;6982;-81
2022/07/10 02:18:24;;;;;;;;;;;;;;;18.00;50.29;101590.47;4976067;28;7059;-81
2022/07/10 02:20:52;;;;;;;;;;;;;;;17.99;50.74;101592.19;4948879;28;7173;-81
2022/07/10 02:23:18;;;;;;;;;;;;;;;18.00;50.44;101593.94;4962082;28;7001;-81
2022/07/10 02:25:44;;;;;;;;;;;;;;;18.03;50.58;101591.50;4958600;28;7350;-81
2022/07/10 02:28:09;;;;;;;;;;;;;;;18.05;51.08;101599.31;4936936;28;7281;-81
2022/07/10 02:30:36;;;;;;;;;;;;;;;18.06;50.75;101593.34;4978016;28;7182;-81
2022/07/10 02:33:01;;;;;;;;;;;;;;;18.08;51.17;101594.28;4977198;28;7073;-81
2022/07/10 02:35:28;;;;;;;;;;;;;;;18.09;50.90;101584.75;4965946;28;7183;-81
2022/07/10 02:37:53;;;;;;;;;;;;;;;18.11;50.88;101585.72;4949667;28;7290;-81
2022/07/10 02:40:19;;;;;;;;;;;;;;;18.13;51.17;101582.31;4963727;28;7022;-81
2022/07/10 02:42:45;;;;;;;;;;;;;;;18.13;50.63;101577.13;4979694;28;6954;-81
2022/07/10 02:45:11;;;;;;;;;;;;;;;18.15;50.48;101577.22;4950902;28;7365;-81
2022/07/10 02:47:37;;;;;;;;;;;;;;;18.15;50.59;101585.00;4971147;28;7015;-82
2022/07/10 02:50:03;;;;;;;;;;;;;;;18.15;51.00;101580.66;4967205;28;6961;-81
2022/07/10 02:52:32;;;;;;;;;;;;;;;18.14;50.83;101572.84;4938458;28;7369;-82
2022/07/10 02:54:58;;;;;;;;;;;;;;;18.11;50.58;101573.63;4977731;28;6827;-81
2022/07/10 02:57:24;;;;;;;;;;;;;;;18.06;50.81;101580.38;4951340;28;6788;-82
2022/07/10 02:59:53;;;;;;;;;;;;;;;17.98;50.49;101581.75;4961361;28;7213;-82
2022/07/10 03:02:18;;;;;;;;;;;;;;;17.86;50.74;101577.00;4961952;28;7051;-81
2022/07/10 03:04:44;;;;;;;;;;;;;;;17.75;50.76;101580.09;4975320;28;6764;-81
2022/07/10 03:07:10;;;;;;;;;;;;;;;17.67;50.93;101578.91;4969684;28;7011;-81
2022/07/10 03:09:35;;;;;;;;;;;;;;;17.59;51.47;101577.72;4968442;28;6951;-81
2022/07/10 03:12:01;;;;;;;;;;;;;;;17.52;51.61;101579.22;4953517;28;8015;-81
2022/07/10 03:14:27;;;;;;;;;;;;;;;17.50;52.02;101580.88;4954256;28;8761;-81
2022/07/10 03:16:52;;;;;;;;;;;;;;;17.49;51.54;101576.53;4985466;28;8102;-81
2022/07/10 03:19:18;;;;;;;;;;;;;;;17.52;51.70;101576.63;4977435;28;6979;-81
2022/07/10 03:21:44;;;;;;;;;;;;;;;17.54;52.07;101577.56;4982395;28;6787;-81
2022/07/10 03:24:10;;;;;;;;;;;;;;;17.55;51.73;101575.88;4953512;28;8825;-81
2022/07/10 03:26:35;;;;;;;;;;;;;;;17.55;51.98;101576.72;4943112;28;6967;-81
2022/07/10 03:29:01;;;;;;;;;;;;;;;17.57;51.74;101580.25;4955145;28;6953;-81
2022/07/10 03:31:26;;;;;;;;;;;;;;;17.60;51.74;101588.16;4956760;28;6943;-81
2022/07/10 03:33:52;;;;;;;;;;;;;;;17.65;52.13;101584.84;4946889;28;8389;-81
2022/07/10 03:36:19;;;;;;;;;;;;;;;17.70;51.54;101591.13;4939516;28;6949;-81
2022/07/10 03:38:46;;;;;;;;;;;;;;;17.75;52.43;101584.38;4949711;28;6967;-81
2022/07/10 03:41:13;;;;;;;;;;;;;;;17.80;52.25;101575.06;4980847;28;7069;-81
2022/07/10 03:43:38;;;;;;;;;;;;;;;17.86;51.62;101580.47;4949229;28;7238;-82
2022/07/10 03:46:04;;;;;;;;;;;;;;;17.94;51.83;101590.25;4948896;28;6919;-81
2022/07/10 03:48:30;;;;;;;;;;;;;;;17.98;51.96;101581.75;4938065;28;7167;-81
2022/07/10 03:50:56;;;;;;;;;;;;;;;18.02;51.53;101576.75;4961135;28;8210;-81
2022/07/10 03:53:21;;;;;;;;;;;;;;;18.06;51.64;101584.66;4980376;28;7205;-81
2022/07/10 03:55:47;;;;;;;;;;;;;;;18.11;51.86;101585.72;4974216;28;6975;-81
2022/07/10 03:58:13;;;;;;;;;;;;;;;18.11;51.83;101580.53;4955234;28;7106;-82
2022/07/10 04:00:40;;;;;;;;;;;;;;;18.13;51.87;101584.94;4967256;28;6984;-81
2022/07/10 04:03:08;;;;;;;;;;;;;;;18.14;51.48;101573.72;4970339;28;7055;-81
2022/07/10 04:05:34;;;;;;;;;;;;;;;18.17;51.53;101581.63;4973267;28;6943;-81
2022/07/10 04:08:01;;;;;;;;;;;;;;;18.20;51.69;101583.44;4949329;28;7234;-82
2022/07/10 04:10:30;;;;;;;;;;;;;;;18.21;51.81;101582.63;4944632;28;8467;-81
2022/07/10 04:12:56;;;;;;;;;;;;;;;18.23;51.53;101585.25;4954650;28;7289;-81
2022/07/10 04:15:22;;;;;;;;;;;;;;;18.27;52.03;101587.16;4933741;28;7059;-81
2022/07/10 04:17:49;;;;;;;;;;;;;;;18.30;51.62;101584.66;4940456;28;6990;-81
2022/07/10 04:20:16;;;;;;;;;;;;;;;18.35;51.56;101590.00;4946913;28;7211;-81
2022/07/10 04:22:43;;;;;;;;;;;;;;;18.38;51.60;101587.50;4934257;28;7008;-81
2022/07/10 04:25:09;;;;;;;;;;;;;;;18.42;50.75;101584.19;4966319;28;7070;-81
2022/07/10 04:27:35;;;;;;;;;;;;;;;18.42;50.98;101581.59;4957453;28;7061;-81
2022/07/10 04:30:01;;;;;;;;;;;;;;;18.45;50.96;101579.09;4955008;28;6923;-81
2022/07/10 04:32:27;;;;;;;;;;;;;;;18.53;51.86;101571.56;4953553;28;7008;-81
2022/07/10 04:34:55;;;;;;;;;;;;;;;18.73;52.27;101561.88;4974490;28;7279;-81
2022/07/10 04:37:21;;;;;;;;;;;;;;;19.02;52.21;101561.94;4950846;28;7710;-81
2022/07/10 04:39:48;;;;;;;;;;;;;;;19.34;51.75;101567.25;4965803;28;7078;-81
2022/07/10 04:42:13;;;;;;;;;;;;;;;19.62;51.07;101564.63;4934372;28;7075;-81
2022/07/10 04:44:39;;;;;;;;;;;;;;;19.74;49.83;101575.38;4951136;28;8240;-81
2022/07/10 04:47:06;;;;;;;;;;;;;;;19.75;49.30;101569.31;4936518;28;8019;-81
2022/07/10 04:49:33;;;;;;;;;;;;;;;19.72;49.36;101571.84;4945812;28;7030;-81
2022/07/10 04:51:58;;;;;;;;;;;;;;;19.67;49.01;101563.91;4956786;28;7228;-81
2022/07/10 04:54:25;;;;;;;;;;;;;;;19.66;49.48;101567.34;4965430;28;7403;-81
2022/07/10 04:56:51;;;;;;;;;;;;;;;19.66;49.20;101577.75;4957563;28;6979;-81
2022/07/10 04:59:17;;;;;;;;;;;;;;;19.68;49.47;101577.78;4946805;28;6962;-81
2022/07/10 05:01:42;;;;;;;;;;;;;;;19.70;49.45;101583.91;4948484;28;7226;-81
2022/07/10 05:04:08;;;;;;;;;;;;;;;19.73;49.25;101583.13;4952142;28;7166;-81
2022/07/10 05:06:34;;;;;;;;;;;;;;;19.76;49.20;101584.09;4976280;28;6992;-80
2022/07/10 05:09:00;;;;;;;;;;;;;;;19.80;48.86;101588.56;4947996;28;7190;-79
2022/07/10 05:11:26;;;;;;;;;;;;;;;19.81;48.59;101598.13;4937806;28;7299;-80
2022/07/10 05:13:52;;;;;;;;;;;;;;;19.79;49.09;101594.56;4943727;28;6951;-80
2022/07/10 05:16:18;;;;;;;;;;;;;;;19.80;48.93;101591.16;4958572;28;6804;-80
2022/07/10 05:18:45;;;;;;;;;;;;;;;19.83;48.68;101585.13;4975578;28;8466;-80
2022/07/10 05:21:11;;;;;;;;;;;;;;;19.83;48.70;101577.34;4974811;28;6804;-80
2022/07/10 05:23:38;;;;;;;;;;;;;;;19.83;48.76;101577.34;4951370;28;7460;-80
2022/07/10 05:26:05;;;;;;;;;;;;;;;19.82;48.76;101568.66;4973021;28;6996;-80
2022/07/10 05:28:31;;;;;;;;;;;;;;;19.85;48.78;101584.34;4947352;28;6820;-79
2022/07/10 05:30:56;;;;;;;;;;;;;;;19.87;48.88;101587.00;4945498;28;7000;-81
2022/07/10 05:33:22;;;;;;;;;;;;;;;19.89;48.58;101579.22;4973627;28;7091;-81
2022/07/10 05:35:48;;;;;;;;;;;;;;;19.92;48.95;101587.13;4978920;28;7166;-80
2022/07/10 05:38:14;;;;;;;;;;;;;;;19.96;48.92;101591.59;4932346;28;6947;-79
2022/07/10 05:40:39;;;;;;;;;;;;;;;20.00;48.87;101589.97;4973010;28;6977;-80
2022/07/10 05:43:05;;;;;;;;;;;;;;;20.05;48.85;101584.06;4933529;28;7441;-80
2022/07/10 05:45:31;;;;;;;;;;;;;;;20.09;48.38;101592.84;4953629;28;7319;-80
2022/07/10 05:47:56;;;;;;;;;;;;;;;20.10;48.14;101594.59;4977005;28;6847;-80
2022/07/10 05:50:22;;;;;;;;;;;;;;;20.08;48.04;101586.75;4969234;28;7649;-80
2022/07/10 05:52:48;;;;;;;;;;;;;;;20.07;48.58;101590.19;4964680;28;6952;-80
2022/07/10 05:55:14;;;;;;;;;;;;;;;20.09;48.47;101592.84;4950118;28;6998;-80
2022/07/10 05:57:40;;;;;;;;;;;;;;;20.10;48.41;101586.78;4961770;28;8443;-80
2022/07/10 06:00:08;;;;;;;;;;;;;;;20.11;48.54;101586.84;4962380;28;7464;-80
2022/07/10 06:02:34;;;;;;;;;;;;;;;20.19;48.73;101599.19;4948266;28;6793;-80
2022/07/10 06:04:59;;;;;;;;;;;;;;;20.25;48.23;101594.13;4966910;28;8060;-79
2022/07/10 06:07:26;;;;;;;;;;;;;;;20.31;48.58;101589.09;4964472;28;6967;-80
2022/07/10 06:09:53;;;;;;;;;;;;;;;20.37;48.14;101599.66;4975610;28;6816;-80
2022/07/10 06:12:19;;;;;;;;;;;;;;;20.43;48.14;101598.06;4920036;28;7056;-79
2022/07/10 06:14:44;;;;;;;;;;;;;;;20.50;48.35;101600.00;4950196;28;6788;-80
2022/07/10 06:17:10;;;;;;;;;;;;;;;20.55;47.90;101603.59;4974663;28;6788;-80
2022/07/10 06:19:36;;;;;;;;;;;;;;;20.56;47.78;101613.16;4963777;28;6769;-79
2022/07/10 06:24:46;;;;;;;;;;;;;;;20.50;47.97;101611.28;4962927;28;7639;-79
2022/07/10 06:27:12;;;;;;;;;;;;;;;20.52;47.65;101608.72;4967227;28;6953;-80
2022/07/10 06:29:38;;;;;;;;;;;;;;;20.59;47.82;101609.75;4959835;28;6795;-79
2022/07/10 06:32:05;;;;;;;;;;;;;;;20.60;47.47;101602.00;4960445;28;7005;-79
2022/07/10 06:34:31;;;;;;;;;;;;;;;20.63;47.26;101601.22;4960221;28;7040;-79
2022/07/10 06:36:57;;;;;;;;;;;;;;;20.61;47.32;101608.06;4959303;28;8027;-79
2022/07/10 06:39:22;;;;;;;;;;;;;;;20.61;47.92;101608.97;4950608;28;7861;-79
2022/07/10 06:41:48;;;;;;;;;;;;;;;20.66;47.75;101602.13;4960467;28;6780;-79
2022/07/10 06:44:13;;;;;;;;;;;;;;;20.71;47.70;101604.00;4942306;28;7385;-79
2022/07/10 06:46:39;;;;;;;;;;;;;;;20.77;47.39;101599.81;4973268;28;6956;-79
2022/07/10 06:49:05;;;;;;;;;;;;;;;20.85;47.55;101593.94;4942998;28;7823;-79
2022/07/10 06:51:31;;;;;;;;;;;;;;;20.94;47.46;101597.66;4959384;28;6975;-79
2022/07/10 06:53:57;;;;;;;;;;;;;;;21.12;48.01;101600.69;4963930;28;6945;-80
2022/07/10 06:56:23;;;;;;;;;;;;;;;21.31;47.57;101601.97;4974311;28;6796;-79
2022/07/10 06:58:48;;;;;;;;;;;;;;;21.48;47.04;101613.66;4971203;28;7199;-79
2022/07/10 07:01:14;;;;;;;;;;;;;;;21.58;46.54;101612.13;4959624;28;6796;-79
2022/07/10 07:03:40;;;;;;;;;;;;;;;21.69;46.59;101612.41;4962519;28;6799;-79
2022/07/10 07:06:06;;;;;;;;;;;;;;;21.78;46.79;101602.16;4960522;28;8015;-79
2022/07/10 07:08:31;;;;;;;;;;;;;;;21.91;46.39;101599.78;4972272;28;7162;-79
2022/07/10 07:10:57;;;;;;;;;;;;;;;22.01;46.06;101603.47;4958235;28;7198;-79
2022/07/10 07:13:23;;;;;;;;;;;;;;;22.08;45.58;101604.47;4955531;28;7034;-79
2022/07/10 07:15:59;;;;;;;;;;;;;;;22.12;45.29;101609.78;4960425;28;8566;-79
2022/07/10 07:18:32;;;;;;;;;;;;;;;22.15;45.02;101594.16;4972049;28;7002;-79
2022/07/10 07:23:45;;;;;;;;;;;;;;;22.28;45.20;101608.31;4946476;28;6825;-79
2022/07/10 07:26:12;;;;;;;;;;;;;;;22.37;45.28;101609.34;4954739;28;8328;-81
2022/07/10 07:28:38;;;;;;;;;;;;;;;22.42;45.11;101612.94;4961799;28;10183;-80
2022/07/10 07:31:03;;;;;;;;;;;;;;;;;;4959951;28;6967;-79
2022/07/10 07:33:29;;;;;;;;;;;;;;;22.54;44.28;101610.56;4960057;28;6804;-79
2022/07/10 07:35:55;;;;;;;;;;;;;;;22.57;43.96;101608.00;4962105;28;7016;-79
2022/07/10 07:38:20;;;;;;;;;;;;;;;22.56;44.01;101605.38;4973999;28;6796;-79
2022/07/10 07:40:46;;;;;;;;;;;;;;;22.55;44.10;101607.09;4968625;28;6852;-79
2022/07/10 07:43:12;;;;;;;;;;;;;;;22.59;44.12;101598.47;4971923;28;8398;-80
2022/07/10 07:45:38;;;;;;;;;;;;;;;22.65;43.59;101608.16;4946451;28;6792;-80
2022/07/10 07:48:04;;;;;;;;;;;;;;;22.70;43.71;101598.66;4949204;28;7125;-79
2022/07/10 07:50:35;;;;;;;;;;;;;;;22.76;43.65;101600.47;4950085;28;7103;-79
2022/07/10 07:53:03;;;;;;;;;;;;;;;22.83;43.43;101604.97;4933622;28;7005;-79
2022/07/10 07:55:31;;;;;;;;;;;;;;;22.88;43.47;101600.66;4946900;28;7105;-78
2022/07/10 07:57:58;;;;;;;;;;;;;;;22.87;43.36;101596.31;4974220;28;7034;-77
2022/07/10 08:00:27;;;;;;;;;;;;;;;22.89;43.39;101594.63;4956899;28;9600;-78
2022/07/10 08:02:56;;;;;;;;;;;;;;;22.93;43.37;101592.03;4929596;28;7307;-77
2022/07/10 08:05:25;;;;;;;;;;;;;;;22.98;43.02;101598.22;4951267;28;6789;-77
2022/07/10 08:07:55;;;;;;;;;;;;;;;23.01;42.21;101600.88;4968277;28;6971;-77
2022/07/10 08:10:24;;;;;;;;;;;;;;;23.12;42.95;101601.03;4945703;28;7337;-77
2022/07/10 08:12:50;;;;;;;;;;;;;;;23.25;42.19;101600.38;4941337;28;7199;-77
2022/07/10 08:15:18;;;;;;;;;;;;;;;23.35;42.11;101604.00;4966064;28;6978;-78
2022/07/10 08:17:49;;;;;;;;;;;;;;;23.52;42.80;101600.75;4934864;28;7014;-78
2022/07/10 08:20:15;;;;;;;;;;;;;;;23.75;42.26;101593.22;4950016;28;6943;-78
2022/07/10 08:22:42;;;;;;;;;;;;;;;23.92;41.93;101589.91;4939834;28;6958;-77
2022/07/10 08:25:09;;;;;;;;;;;;;;;24.16;42.22;101589.34;4968325;28;7260;-77
2022/07/10 08:27:35;;;;;;;;;;;;;;;24.62;41.83;101582.75;4971215;28;6986;-78
2022/07/10 08:30:00;;;;;;;;;;;;;;;25.08;40.62;101570.00;4955018;28;7288;-79
2022/07/10 08:32:27;;;;;;;;;;;;;;;25.50;40.25;101580.75;4970006;28;7004;-77
2022/07/10 08:34:53;;;;;;;;;;;;;;;25.70;39.43;101574.72;4941117;28;6792;-78
2022/07/10 08:37:19;;;;;;;;;;;;;;;25.76;39.22;101568.59;4944684;28;7220;-78
2022/07/10 08:39:46;;;;;;;;;;;;;;;25.85;38.92;101570.41;4962094;28;7321;-78
2022/07/10 08:42:12;;;;;;;;;;;;;;;25.95;38.49;101576.53;4946455;28;6932;-78
2022/07/10 08:44:38;;;;;;;;;;;;;;;26.01;37.56;101589.69;4973038;28;7765;-78
2022/07/10 08:47:05;;;;;;;;;;;;;;;25.89;36.67;101586.16;4953240;28;7324;-78
2022/07/10 08:49:31;;;;;;;;;;;;;;;25.64;37.50;101582.56;4939133;28;6788;-78
2022/07/10 08:52:08;;;;;;;;;;;;;;;25.47;37.62;101590.31;4967305;28;7188;-78
2022/07/10 08:54:35;;;;;;;;;;;;;;;25.38;37.77;101575.44;4959361;28;7144;-78
2022/07/10 08:57:03;;;;;;;;;;;;;;;25.36;38.01;101578.03;4979680;28;6981;-78
2022/07/10 08:59:29;;;;;;;;;;;;;;;25.42;38.17;101577.19;4968802;28;7443;-78
2022/07/10 09:01:55;;;;;;;;;;;;;;;25.58;38.63;101578.16;4973701;28;6964;-78
2022/07/10 09:04:25;;;;;;;;;;;;;;;25.78;38.20;101577.34;4970752;28;6791;-77
2022/07/10 09:06:52;;;;;;;;;;;;;;;25.97;37.86;101575.66;4935109;28;8058;-79
2022/07/10 09:09:19;;;;;;;;;;;;;;;26.09;37.77;101569.56;4930908;28;7903;-79
2022/07/10 09:11:46;;;;;;;;;;;;;;;26.13;36.98;101563.44;4956339;28;7283;-78
2022/07/10 09:14:16;;;;;;;;;;;;;;;26.09;37.35;101561.69;4959831;28;7001;-80
2022/07/10 09:16:50;;;;;;;;;;;;;;;26.07;36.89;101566.03;4949008;28;6868;-79
2022/07/10 09:19:28;;;;;;;;;;;;;;;26.06;37.03;101567.81;4938225;28;6881;-79
2022/07/10 09:22:09;;;;;;;;;;;;;;;26.07;37.12;101566.03;4948883;28;7247;-79
2022/07/10 09:24:41;;;;;;;;;;;;;;;25.95;36.91;101561.66;4957597;28;6977;-78
2022/07/10 09:27:08;;;;;;;;;;;;;;;25.70;37.07;101560.72;4960512;28;6968;-79
2022/07/10 09:29:57;;;;;;;;;;;;;;;25.40;37.45;101563.19;4960703;28;6987;-79
2022/07/10 09:32:23;;;;;;;;;;;;;;;25.10;37.35;101560.41;4949005;28;7050;-79
2022/07/10 09:36:04;;;;;;;;;;;;;;;24.86;37.82;101565.50;4971092;28;7054;-79
2022/07/10 09:37:41;;;;;;;;;;;;;;;24.65;37.94;101564.44;4953452;28;10037;-79
2022/07/10 09:40:08;;;;;;;;;;;;;;;24.52;38.04;101566.09;4944419;28;6784;-79
2022/07/10 09:42:36;;;;;;;;;;;;;;;24.43;38.53;101569.47;4946652;28;7017;-80
2022/07/10 09:45:13;;;;;;;;;;;;;;;24.36;38.87;101560.69;4959442;28;8163;-80
2022/07/10 09:47:41;;;;;;;;;;;;;;;24.28;38.49;101570.22;4961914;28;6868;-80
2022/07/10 09:50:27;;;;;;;;;;;;;;;24.22;39.04;101568.44;4941258;28;7404;-79
2022/07/10 09:52:59;;;;;;;;;;;;;;;24.21;39.46;101565.81;4953691;28;6815;-79
2022/07/10 09:55:29;;;;;;;;;;;;;;;24.20;39.23;101567.53;4943458;28;7199;-80
2022/07/10 09:58:04;;;;;;;;;;;;;;;24.19;39.08;101568.41;4963982;28;8325;-81
2022/07/10 10:00:35;;;;;;;;;;;;;;;24.12;39.28;101556.09;4955621;28;7518;-81
2022/07/10 10:03:04;;;;;;;;;;;;;;;24.09;39.56;101561.31;4977649;28;7274;-81
2022/07/10 10:05:43;;;;;;;;;;;;;;;24.06;39.56;101570.03;4945394;28;7273;-79
2022/07/10 10:08:18;;;;;;;;;;;;;;;24.00;39.68;101562.94;4956528;28;6800;-80
2022/07/10 10:10:48;;;;;;;;;;;;;;;23.93;40.25;101570.72;4948642;28;7244;-81
2022/07/10 10:13:23;;;;;;;;;;;;;;;23.92;40.17;101569.84;4956248;28;7052;-81
2022/07/10 10:15:51;;;;;;;;;;;;;;;23.92;40.17;101582.06;4959651;28;6829;-81
2022/07/10 10:18:19;;;;;;;;;;;;;;;23.88;40.07;101577.63;4981535;28;8372;-82
2022/07/10 10:20:47;;;;;;;;;;;;;;;23.79;40.39;101579.28;4985206;28;6954;-82
2022/07/10 10:23:20;;;;;;;;;;;;;;;23.72;40.37;101574.84;4958176;28;8348;-81
2022/07/10 10:25:53;;;;;;;;;;;;;;;23.70;41.04;101573.94;4961558;28;8175;-81
2022/07/10 10:28:23;;;;;;;;;;;;;;;23.76;40.83;101576.63;4939928;28;8527;-82
2022/07/10 10:30:53;;;;;;;;;;;;;;;23.84;40.90;101571.47;4941499;28;8110;-82
2022/07/10 10:33:34;;;;;;;;;;;;;;;23.90;41.57;101571.56;4942761;28;6965;-81
2022/07/10 10:36:05;;;;;;;;;;;;;;;24.01;41.82;101569.06;4975392;28;7228;-81
2022/07/10 10:38:51;;;;;;;;;;;;;;;24.16;41.73;101560.53;4944219;28;7286;-81
2022/07/10 10:41:24;;;;;;;;;;;;;;;24.36;41.42;101565.94;4972154;28;7233;-81
2022/07/10 10:44:24;;;;;;;;;;;;;;;24.68;41.46;101560.13;4945659;28;8738;-81
2022/07/10 10:46:49;;;;;;;;;;;;;;;24.98;41.17;101557.72;4983419;28;6999;-82
2022/07/10 10:49:17;;;;;;;;;;;;;;;25.18;40.71;101557.84;4973842;28;6776;-81
2022/07/10 10:52:08;;;;;;;;;;;;;;;25.37;40.69;101556.16;4959634;28;7127;-82
2022/07/10 10:54:56;;;;;;;;;;;;;;;25.61;39.96;101548.44;4952765;28;7353;-82
2022/07/10 10:57:23;;;;;;;;;;;;;;;25.82;39.69;101547.63;4952239;28;6830;-81
2022/07/10 10:59:54;;;;;;;;;;;;;;;26.06;39.42;101541.56;4951564;28;6975;-82
2022/07/10 11:02:36;;;;;;;;;;;;;;;26.27;38.66;101533.69;4982670;28;7240;-81
2022/07/10 11:05:12;;;;;;;;;;;;;;;26.37;38.66;101537.22;4969152;28;6970;-82
2022/07/10 11:08:04;;;;;;;;;;;;;;;26.53;38.34;101533.72;4980949;28;8028;-82
2022/07/10 11:10:37;;;;;;;;;;;;;;;26.83;38.39;101536.28;4967200;28;7000;-83
2022/07/10 11:13:17;;;;;;;;;;;;;;;27.14;37.77;101531.88;4968895;28;7068;-81
2022/07/10 11:15:49;;;;;;;;;;;;;;;27.35;37.51;101529.19;4969140;28;6968;-81
2022/07/10 11:18:18;;;;;;;;;;;;;;;27.38;36.65;101530.03;4978705;28;7268;-80
2022/07/10 11:20:51;;;;;;;;;;;;;;;27.36;36.69;101518.63;4949128;28;7227;-81
2022/07/10 11:23:49;;;;;;;;;;;;;;;27.40;36.61;101522.13;4960201;28;7002;-80
2022/07/10 11:26:49;;;;;;;;;;;;;;;27.51;36.67;101522.94;4953143;28;7387;-81
2022/07/10 11:29:18;;;;;;;;;;;;;;;27.93;36.68;101516.59;4960228;28;7076;-80
2022/07/10 11:31:55;;;;;;;;;;;;;;;28.16;35.82;101508.53;4937302;28;8671;-81
2022/07/10 11:34:36;;;;;;;;;;;;;;;28.05;35.46;101505.97;4959995;28;7063;-80
2022/07/10 11:37:03;;;;;;;;;;;;;;;27.86;35.60;101516.63;4942692;28;8590;-81
2022/07/10 11:39:29;;;;;;;;;;;;;;;27.66;35.34;101505.34;4950147;28;7016;-80
2022/07/10 11:41:55;;;;;;;;;;;;;;;27.58;36.08;101502.78;4930106;28;7053;-81
2022/07/10 11:44:21;;;;;;;;;;;;;;;27.83;36.43;101503.50;4957352;28;6788;-80
2022/07/10 11:46:49;;;;;;;;;;;;;;;28.21;35.73;101496.22;4978716;28;7259;-80
2022/07/10 11:49:17;;;;;;;;;;;;;;;28.57;35.49;101497.66;4978132;28;6995;-81
2022/07/10 11:51:44;;;;;;;;;;;;;;;28.71;35.13;101489.59;4952212;28;6999;-81
2022/07/10 11:54:18;;;;;;;;;;;;;;;28.68;34.83;101486.13;4947016;28;6813;-82
2022/07/10 11:56:52;;;;;;;;;;;;;;;28.52;34.75;101482.75;4963248;28;7108;-82
2022/07/10 11:59:28;;;;;;;;;;;;;;;28.30;34.99;101482.09;4972580;28;7050;-80
2022/07/10 12:01:56;;;;;;;;;;;;;;;28.18;34.97;101483.03;4954442;28;7346;-81
2022/07/10 12:04:25;;;;;;;;;;;;;;;28.19;35.26;101471.63;4963191;28;6864;-81
2022/07/10 12:06:53;;;;;;;;;;;;;;;28.25;34.92;101470.72;4959151;28;8892;-82
2022/07/10 12:09:22;;;;;;;;;;;;;;;28.26;34.54;101472.44;4978182;28;6972;-81
2022/07/10 12:12:06;;;;;;;;;;;;;;;28.28;34.44;101478.56;4948680;28;6896;-81
2022/07/10 12:14:34;;;;;;;;;;;;;;;28.17;34.33;101480.41;4962578;28;6972;-81
2022/07/10 12:17:01;;;;;;;;;;;;;;;28.08;34.74;101478.72;4969947;28;8165;-81
2022/07/10 12:19:38;;;;;;;;;;;;;;;28.00;35.45;101481.41;4942030;28;7318;-82
2022/07/10 12:22:05;;;;;;;;;;;;;;;27.96;34.83;101474.44;4940312;28;6955;-82
2022/07/10 12:24:32;;;;;;;;;;;;;;;27.91;35.38;101477.09;4977091;28;7666;-80
2022/07/10 12:26:58;;;;;;;;;;;;;;;27.83;35.50;101476.28;4952147;28;6784;-81
2022/07/10 12:29:27;;;;;;;;;;;;;;;27.76;35.60;101485.09;4954271;28;8407;-82
2022/07/10 12:32:00;;;;;;;;;;;;;;;27.72;35.22;101486.91;4944885;28;7178;-83
2022/07/10 12:34:46;;;;;;;;;;;;;;;27.65;35.79;101490.44;4951421;28;7173;-82
2022/07/10 12:37:14;;;;;;;;;;;;;;;27.59;35.88;101484.31;4959416;28;7003;-81
2022/07/10 12:39:54;;;;;;;;;;;;;;;27.66;35.97;101489.56;4958304;28;8899;-81
2022/07/10 12:42:29;;;;;;;;;;;;;;;28.06;35.82;101488.41;4944121;28;8906;-80
2022/07/10 12:45:12;;;;;;;;;;;;;;;28.72;35.79;101481.66;4942960;28;8466;-80
2022/07/10 12:47:50;;;;;;;;;;;;;;;29.37;34.28;101480.03;4977008;28;8398;-81
2022/07/10 12:50:18;;;;;;;;;;;;;;;29.71;33.30;101486.63;4946948;28;7242;-81
2022/07/10 12:52:44;;;;;;;;;;;;;;;29.73;33.03;101476.91;4970443;28;7247;-80
2022/07/10 12:55:22;;;;;;;;;;;;;;;29.59;32.97;101474.47;4945265;28;7241;-80
2022/07/10 12:57:57;;;;;;;;;;;;;;;29.41;32.93;101476.44;4931911;28;7086;-82
2022/07/10 13:00:34;;;;;;;;;;;;;;;29.33;33.32;101479.22;4974358;28;7173;-81
2022/07/10 13:03:08;;;;;;;;;;;;;;;29.34;32.91;101470.41;4969587;28;7392;-81